Offutt AFB, NE (68113)

9:36 PM CDT on September 20, 2019 (GMT -0500)
Stonecroft | | Change Station
Active Advisory: Flood Warning

Elev 1055 ft 41.11 °N, 95.94 °W | Updated 13 seconds ago

Mostly Cloudy
Mostly Cloudy
74.3 °F
Feels Like 75 °F
N
4
Wind Variable Wind from East
Gusts 5.0 mph

Today
High -- | Low -- °F
--% Chance of Precip.
Yesterday
High -- | Low -- °F
Precip. -- in
Pressure 29.89 in
Visibility 10.0 miles
Clouds Few 7000 ft
Mostly Cloudy 10000 ft
Heat Index 75 °F
Dew Point 68 °F
Humidity 81%
Rainfall in
Snow Depth Not available.
7:08 AM 7:24 PM
Waning Gibbous, 61% visible
METAR KOFF 210156Z 15010KT 10SM FEW070 BKN100 24/20 A2994 RMK AO2A SLP121 RVRNO $
Pressure 29.89 in
Visibility 10.0 miles
Clouds Few 7000 ft
Mostly Cloudy 10000 ft
Heat Index 75 °F
Dew Point 68 °F
Humidity 81%
Rainfall in
Snow Depth Not available.
7:08 AM 7:24 PM
Waning Gibbous, 61% visible
METAR KOFF 210156Z 15010KT 10SM FEW070 BKN100 24/20 A2994 RMK AO2A SLP121 RVRNO $

Get Your Daily Forecast Email!

Thanks for signing up!

Be on the lookout for a verification email in your inbox.

You'll start receiving severe weather alerts in your inbox..

×

10-Day Weather Forecast

Almanac

Astronomy

Sep. 20, 2019 Rise Set
Actual Time
Civil Twilight
Nautical Twilight
Astronomical Twilight
Moon
Length of Visible Light
Length of Day
Tomorrow will be .
, % of the Moon is Illuminated

Today's Extremes

State Highs State Lows

Community

WunderPhotos

Category 6

Welcome to Category 6. This is the collective home for Weather Underground's featured writeups by Dr. Jeff Masters (right), Bob Henson (left), Chris Burt, and other regular contributors.

Nearby

Air Quality

  Air Quality AQ Index Pollutant
Not available.

Snow Depth

Station Depth Elevation

Earthquake Activity

City Distance Mag. Time & Date
Minimum magnitude displayed is 2.5.

Coastal Water Temperatures

Place Temperature

Stations

Nearby Weather Stations

Station Location Temp. Windchill Dew Point Humidity Wind Precip. Elev Updated Type
                   

Watches & Warnings

Flood Warning
Issued: 8:24 PM CDT Sep. 20, 2019 – National Weather Service

The Flood Warning continues for
the Missouri River at Omaha.
* At 8:00 PM Friday the stage was 30.1 feet... or 1.1 feet above
flood stage.
* Flood stage is 29.0 feet.
* Minor flooding is occurring and minor flooding is forecast.
* Forecast... the river will continue rising to near 30.2 feet by
after Saturday morning. The river will fall below flood stage
early Wednesday afternoon September 25th.



Lat... Lon 4142 9602 4142 9583 4107 9574 4106 9591
      4132 9595